Arlington, OR

3:41 AM PDT on October 25, 2014 (GMT -0700)
KORARLIN2 | Change Station
CLOSE
Current Station
Personal Weather Station
Location: Arlington, OR
Elevation: 890 ft
Nearby Weather Stations

Elev 890 ft 45.72 °N, 120.18 °W | Updated 3 minutes ago

Overcast
Overcast
48.1 °F
Feels Like 48 °F
N
0.0
Wind Variable Wind from East
Gusts 0.0 mph

Today
High -- | Low -- °F
--% Chance of Precip.
Yesterday
High -- | Low -- °F
Precip. -- in
7:30 AM 5:57 PM
New Moon, 3% visible
Pressure 29.77 in
Visibility 10.0 miles
Clouds Mostly Cloudy 1900 ft
Windchill 48 °F
Dew Point 46 °F
Humidity 92%
Rainfall 0.00 in
Snow Depth Not available.
UV 0.0 out of 12
Pollen .90 out of 12
Air Quality Not available.
Flu Activity Sporadic
METAR KHRI 250953Z AUTO 21004KT 10SM BKN019 09/08 A2977 RMK AO2 SLP080 T00940078

More Conditions Fewer Conditions

Pressure 29.77 in
Visibility 10.0 miles
Clouds Mostly Cloudy 1900 ft
Windchill 48 °F
Dew Point 46 °F
Humidity 92%
Rainfall 0.00 in
Snow Depth Not available.
UV 0.0 out of 12
Pollen .90 out of 12
Air Quality Not available.
Flu Activity Sporadic
METAR KHRI 250953Z AUTO 21004KT 10SM BKN019 09/08 A2977 RMK AO2 SLP080 T00940078

More Conditions Fewer Conditions

10-Day Weather Forecast

Almanac

Astronomy

Oct. 25, 2014 Rise Set
Actual Time 7:30 AM PDT 5:57 PM PDT
Civil Twilight 7:00 AM PDT 6:28 PM PDT
Nautical Twilight 6:25 AM PDT 7:03 PM PDT
Astronomical Twilight 5:51 AM PDT 7:37 PM PDT
Moon 9:18 AM PDT 7:20 PM PDT
Length of Visible Light 11h 27m
Length of Day
10h 26m
Tomorrow will be 2m 59s shorter.
New Moon, 3% of the Moon is Illuminated
Today
New Moon
Oct 30
First Quarter
Nov 6
Full
Nov 14
Last Quarter
Nov 22
New

Today's Extremes

State Highs State Lows

Community

WunderPhotos

Upload Photos

1,764,806 photos uploaded!

Nearby

Snow Depth

Station Depth Elevation
Madison Butte 0 in 5250 ft
Lucky Strike 1 in 5050 ft
Clear Lake 1 in 3500 ft
Emigrant Springs 2 in 3925 ft
Derr 0 in 5670 ft

Earthquake Activity

City Distance Mag. Time & Date
No recent earthquake activity has been reported nearby.
Minimum magnitude displayed is 2.5.

Coastal Water Temperatures

Place Temperature
No Stations Reporting

Nearby Weather Stations